createdAt,value
2019-01-25T00:01:18.286Z,40.57
2019-01-25T00:03:45.916Z,43.93
2019-01-25T00:06:13.595Z,44.23
2019-01-25T00:08:41.156Z,41.93
2019-01-25T00:11:08.707Z,43.90
2019-01-25T00:13:36.461Z,48.33
2019-01-25T00:16:04.799Z,42.40
2019-01-25T00:18:32.670Z,45.17
2019-01-25T00:21:00.272Z,42.43
2019-01-25T00:23:27.796Z,41.60
2019-01-25T00:25:55.326Z,42.50
2019-01-25T00:28:22.925Z,44.77
2019-01-25T00:30:50.578Z,45.37
2019-01-25T00:33:19.298Z,44.23
2019-01-25T00:35:46.963Z,44.23
2019-01-25T00:38:14.642Z,40.37
2019-01-25T00:40:42.396Z,43.30
2019-01-25T00:43:10.153Z,39.30
2019-01-25T00:45:37.869Z,42.43
2019-01-25T00:48:05.582Z,41.40
2019-01-25T00:50:33.412Z,41.90
2019-01-25T00:53:01.141Z,40.87
2019-01-25T00:55:28.811Z,41.30
2019-01-25T00:57:56.481Z,41.73
2019-01-25T01:00:25.108Z,40.83
2019-01-25T01:02:55.770Z,42.73
2019-01-25T01:05:23.513Z,42.43
2019-01-25T01:07:51.674Z,40.30
2019-01-25T01:10:21.335Z,47.23
2019-01-25T01:12:49.711Z,45.23
2019-01-25T01:15:17.495Z,42.20
2019-01-25T01:17:45.364Z,40.37
2019-01-25T01:20:15.000Z,39.03
2019-01-25T01:22:42.733Z,42.97
2019-01-25T01:25:11.607Z,43.47
2019-01-25T01:27:39.313Z,41.23
2019-01-25T01:30:09.752Z,42.43
2019-01-25T01:32:37.307Z,46.27
2019-01-25T01:35:05.175Z,43.93
2019-01-25T01:37:32.743Z,42.73
2019-01-25T01:40:00.504Z,42.43
2019-01-25T01:42:28.089Z,38.63
2019-01-25T01:44:55.727Z,44.27
2019-01-25T01:47:23.367Z,42.27
2019-01-25T01:49:51.160Z,43.83
2019-01-25T01:52:18.728Z,46.27
2019-01-25T01:54:46.420Z,45.83
2019-01-25T01:57:13.987Z,40.53
2019-01-25T01:59:44.551Z,43.33
2019-01-25T02:02:12.785Z,44.57
2019-01-25T02:04:40.374Z,45.00
2019-01-25T02:07:08.381Z,44.20
2019-01-25T02:09:36.064Z,43.20
2019-01-25T02:12:03.608Z,41.87
2019-01-25T02:14:31.281Z,42.20
2019-01-25T02:16:58.957Z,42.37
2019-01-25T02:19:26.528Z,42.17
2019-01-25T02:21:54.127Z,43.20
2019-01-25T02:24:21.763Z,45.17
2019-01-25T02:26:49.380Z,45.40
2019-01-25T02:29:17.010Z,45.33
2019-01-25T02:31:44.804Z,44.23
2019-01-25T02:34:12.499Z,43.60
2019-01-25T02:36:41.947Z,40.97
2019-01-25T02:39:09.528Z,43.50
2019-01-25T02:41:37.227Z,45.53
2019-01-25T02:44:04.940Z,41.47
2019-01-25T02:46:32.540Z,43.70
2019-01-25T02:49:00.161Z,41.33
2019-01-25T02:51:27.696Z,41.70
2019-01-25T02:53:55.267Z,42.10
2019-01-25T02:56:22.952Z,40.60
2019-01-25T02:58:50.520Z,40.07
2019-01-25T03:01:18.055Z,38.20
2019-01-25T03:03:45.723Z,43.70
2019-01-25T03:06:13.317Z,39.70
2019-01-25T03:08:40.871Z,39.40
2019-01-25T03:11:08.635Z,44.70
2019-01-25T03:13:36.250Z,43.27
2019-01-25T03:16:03.764Z,44.70
2019-01-25T03:18:31.378Z,44.97
2019-01-25T03:20:58.963Z,41.33
2019-01-25T03:23:26.488Z,40.93
2019-01-25T03:25:56.042Z,41.17
2019-01-25T03:28:23.625Z,43.43
2019-01-25T03:30:51.293Z,44.20
2019-01-25T03:33:18.905Z,43.37
2019-01-25T03:35:46.513Z,42.70
2019-01-25T03:38:14.224Z,41.73
2019-01-25T03:40:42.065Z,41.40
2019-01-25T03:43:09.764Z,38.87
2019-01-25T03:45:37.353Z,39.93
2019-01-25T03:48:05.184Z,44.27
2019-01-25T03:50:32.879Z,44.20
2019-01-25T03:53:00.486Z,44.57
2019-01-25T03:55:28.190Z,40.47
2019-01-25T03:57:55.865Z,41.40
2019-01-25T04:00:26.954Z,43.30
2019-01-25T04:02:54.570Z,41.60
2019-01-25T04:05:22.271Z,42.27
2019-01-25T04:07:49.888Z,42.50
2019-01-25T04:10:19.606Z,41.50
2019-01-25T04:12:47.282Z,38.83
2019-01-25T04:15:22.886Z,40.23
2019-01-25T04:17:50.569Z,43.83
2019-01-25T04:20:18.386Z,44.30
2019-01-25T04:22:46.091Z,44.67
2019-01-25T04:25:15.952Z,48.43
2019-01-25T04:27:43.700Z,47.53
2019-01-25T04:30:14.440Z,43.30
2019-01-25T04:32:42.163Z,46.60
2019-01-25T04:35:09.872Z,42.27
2019-01-25T04:37:37.577Z,46.03
2019-01-25T04:40:07.371Z,44.33
2019-01-25T04:42:35.066Z,46.43
2019-01-25T04:45:03.198Z,47.13
2019-01-25T04:47:30.844Z,44.13
2019-01-25T04:49:58.537Z,47.50
2019-01-25T04:52:26.182Z,45.70
2019-01-25T04:54:53.898Z,44.37
2019-01-25T04:57:21.622Z,49.83
2019-01-25T04:59:49.314Z,40.83
2019-01-25T05:02:17.019Z,47.73
2019-01-25T05:04:44.723Z,43.40
2019-01-25T05:07:12.298Z,48.23
2019-01-25T05:09:40.051Z,45.50
2019-01-25T05:12:07.811Z,41.70
2019-01-25T05:14:35.589Z,45.57
2019-01-25T05:17:03.780Z,45.00
2019-01-25T05:19:38.101Z,52.40
2019-01-25T05:22:06.303Z,43.27
2019-01-25T05:24:34.133Z,47.27
2019-01-25T05:27:03.128Z,46.63
2019-01-25T05:29:53.871Z,46.43
2019-01-25T05:32:21.680Z,46.40
2019-01-25T05:34:49.344Z,48.97
2019-01-25T05:37:17.049Z,46.57
2019-01-25T05:39:44.707Z,47.40
2019-01-25T05:42:12.396Z,46.97
2019-01-25T05:44:39.961Z,49.07
2019-01-25T05:47:10.929Z,50.73
2019-01-25T05:49:38.591Z,51.77
2019-01-25T05:52:10.229Z,55.37
2019-01-25T05:54:37.841Z,55.13
2019-01-25T05:57:05.480Z,54.97
2019-01-25T05:59:33.082Z,51.17
2019-01-25T06:02:00.849Z,52.00
2019-01-25T06:04:33.395Z,51.83
2019-01-25T06:07:01.019Z,56.90
2019-01-25T06:09:28.637Z,65.47
2019-01-25T06:11:56.348Z,62.60
2019-01-25T06:14:23.882Z,66.50
2019-01-25T06:16:51.531Z,67.17
2019-01-25T06:19:19.127Z,59.90
2019-01-25T06:21:46.866Z,63.83
2019-01-25T06:24:14.452Z,66.57
2019-01-25T06:26:44.527Z,66.70
2019-01-25T06:29:12.115Z,61.67
2019-01-25T06:31:39.927Z,63.90
2019-01-25T06:34:08.214Z,61.73
2019-01-25T06:36:35.865Z,62.40
2019-01-25T06:39:06.922Z,69.90
2019-01-25T06:41:34.698Z,67.73
2019-01-25T06:44:02.451Z,61.33
2019-01-25T06:46:30.111Z,70.67
2019-01-25T06:48:57.878Z,71.90
2019-01-25T06:51:25.602Z,69.73
2019-01-25T06:53:53.353Z,73.70
2019-01-25T06:56:21.159Z,79.00
2019-01-25T06:59:06.932Z,85.20
2019-01-25T07:01:54.886Z,92.13
2019-01-25T07:04:22.614Z,91.17
2019-01-25T07:06:50.302Z,81.43
2019-01-25T07:09:18.026Z,91.00
2019-01-25T07:11:51.597Z,90.80
2019-01-25T07:14:15.419Z,83.93
2019-01-25T07:16:43.152Z,88.40
2019-01-25T07:19:10.815Z,88.00
2019-01-25T07:21:38.392Z,88.80
2019-01-25T07:24:06.149Z,87.17
2019-01-25T07:26:33.895Z,86.00
2019-01-25T07:29:01.541Z,88.03
2019-01-25T07:31:29.129Z,84.70
2019-01-25T07:33:56.800Z,88.80
2019-01-25T07:36:24.499Z,91.70
2019-01-25T07:38:52.155Z,88.57
2019-01-25T07:41:19.895Z,90.23
2019-01-25T07:43:47.622Z,85.10
2019-01-25T07:46:15.265Z,94.73
2019-01-25T07:48:43.087Z,90.63
2019-01-25T07:51:10.624Z,89.53
2019-01-25T07:53:38.289Z,87.87
2019-01-25T07:56:05.958Z,87.07
2019-01-25T07:58:33.694Z,84.40
2019-01-25T08:01:01.243Z,89.57
2019-01-25T08:03:28.988Z,80.53
2019-01-25T08:05:56.641Z,85.10
2019-01-25T08:08:24.314Z,84.07
2019-01-25T08:10:51.923Z,79.67
2019-01-25T08:13:19.616Z,76.57
2019-01-25T08:15:47.243Z,82.83
2019-01-25T08:18:15.020Z,73.67
2019-01-25T08:20:42.584Z,70.87
2019-01-25T08:23:10.320Z,72.73
2019-01-25T08:25:38.073Z,72.63
2019-01-25T08:28:05.767Z,75.57
2019-01-25T08:30:33.352Z,69.20
2019-01-25T08:33:01.167Z,74.63
2019-01-25T08:35:28.819Z,78.00
2019-01-25T08:37:56.502Z,75.13
2019-01-25T08:40:24.202Z,78.53
2019-01-25T08:42:51.970Z,72.60
2019-01-25T08:45:19.798Z,69.93
2019-01-25T08:47:47.549Z,71.27
2019-01-25T08:50:17.446Z,67.00
2019-01-25T08:52:45.237Z,69.33
2019-01-25T08:55:13.625Z,67.90
2019-01-25T08:57:41.417Z,69.23
2019-01-25T09:00:12.375Z,67.03
2019-01-25T09:02:40.087Z,64.47
2019-01-25T09:05:08.748Z,66.27
2019-01-25T09:07:36.384Z,62.10
2019-01-25T09:10:06.096Z,62.60
2019-01-25T09:12:33.745Z,68.40
2019-01-25T09:15:01.357Z,67.50
2019-01-25T09:17:30.417Z,71.43
2019-01-25T09:19:58.026Z,61.57
2019-01-25T09:22:25.738Z,64.97
2019-01-25T09:24:53.339Z,65.57
2019-01-25T09:27:21.014Z,67.30
2019-01-25T09:29:48.686Z,69.00
2019-01-25T09:32:16.407Z,69.97
2019-01-25T09:34:43.983Z,69.07
2019-01-25T09:37:11.579Z,74.80
2019-01-25T09:39:39.142Z,75.20
2019-01-25T09:42:09.673Z,71.77
2019-01-25T09:44:37.365Z,72.60
2019-01-25T09:47:04.987Z,72.87
2019-01-25T09:49:32.576Z,77.07
2019-01-25T09:52:00.189Z,84.87
2019-01-25T09:54:27.730Z,86.33
2019-01-25T09:56:55.438Z,85.07
2019-01-25T09:59:23.020Z,79.33
2019-01-25T10:01:50.778Z,83.37
2019-01-25T10:04:18.545Z,79.37
2019-01-25T10:06:46.719Z,81.13
2019-01-25T10:09:14.283Z,79.33
2019-01-25T10:11:41.992Z,72.70
2019-01-25T10:14:09.609Z,71.53
2019-01-25T10:16:37.240Z,76.10
2019-01-25T10:19:04.910Z,70.80
2019-01-25T10:21:32.576Z,66.77
2019-01-25T10:24:00.151Z,72.33
2019-01-25T10:26:27.948Z,68.57
2019-01-25T10:28:55.511Z,68.23
2019-01-25T10:31:23.234Z,72.13
2019-01-25T10:33:52.211Z,74.00
2019-01-25T10:36:19.897Z,80.27
2019-01-25T10:38:47.501Z,72.50
2019-01-25T10:41:15.149Z,72.67
2019-01-25T10:43:42.771Z,74.97
2019-01-25T10:46:11.402Z,75.13
2019-01-25T10:48:38.982Z,83.07
2019-01-25T10:51:06.681Z,71.50
2019-01-25T10:53:34.319Z,68.13
2019-01-25T10:56:02.114Z,67.07
2019-01-25T10:58:29.824Z,61.47
2019-01-25T11:00:57.459Z,67.37
2019-01-25T11:03:25.093Z,61.77
2019-01-25T11:05:52.865Z,66.50
2019-01-25T11:08:20.582Z,65.63
2019-01-25T11:10:48.270Z,68.33
2019-01-25T11:13:15.860Z,69.20
2019-01-25T11:15:43.556Z,73.37
2019-01-25T11:18:11.242Z,75.10
2019-01-25T11:20:38.927Z,73.67
2019-01-25T11:23:06.535Z,80.13
2019-01-25T11:25:36.564Z,68.77
2019-01-25T11:28:04.408Z,72.20
2019-01-25T11:30:32.246Z,74.13
2019-01-25T11:32:59.880Z,72.40
2019-01-25T11:35:27.630Z,74.33
2019-01-25T11:37:55.200Z,67.23
2019-01-25T11:40:25.321Z,72.80
2019-01-25T11:42:53.797Z,65.97
2019-01-25T11:45:21.487Z,70.30
2019-01-25T11:47:49.246Z,67.93
2019-01-25T11:50:17.261Z,74.47
2019-01-25T11:52:44.923Z,71.03
2019-01-25T11:55:12.697Z,69.27
2019-01-25T11:57:40.333Z,70.20
2019-01-25T12:00:15.039Z,69.27
2019-01-25T12:02:45.127Z,66.23
2019-01-25T12:05:13.824Z,69.77
2019-01-25T12:07:41.575Z,65.33
2019-01-25T12:10:10.841Z,63.13
2019-01-25T12:12:38.414Z,70.20
2019-01-25T12:15:09.063Z,68.87
2019-01-25T12:17:36.768Z,68.50
2019-01-25T12:20:06.378Z,81.73
2019-01-25T12:22:38.642Z,71.47
2019-01-25T12:25:07.311Z,81.77
2019-01-25T12:27:34.910Z,77.53
2019-01-25T12:30:03.735Z,75.90
2019-01-25T12:32:31.541Z,69.53
2019-01-25T12:34:59.228Z,70.87
2019-01-25T12:37:26.758Z,64.93
2019-01-25T12:39:54.491Z,65.03
2019-01-25T12:42:22.038Z,58.57
2019-01-25T12:44:49.832Z,58.70
2019-01-25T12:47:17.358Z,53.90
2019-01-25T12:49:45.006Z,48.47
2019-01-25T12:52:12.671Z,58.30
2019-01-25T12:54:40.317Z,56.53
2019-01-25T12:57:07.931Z,59.23
2019-01-25T12:59:35.981Z,62.07
2019-01-25T13:02:03.787Z,52.83
2019-01-25T13:04:31.482Z,58.47
2019-01-25T13:06:59.036Z,55.97
2019-01-25T13:09:26.615Z,52.87
2019-01-25T13:11:54.468Z,50.80
2019-01-25T13:14:22.041Z,54.03
2019-01-25T13:16:50.846Z,51.30
2019-01-25T13:19:18.552Z,50.83
2019-01-25T13:21:46.177Z,47.40
2019-01-25T13:24:13.752Z,45.23
2019-01-25T13:26:41.518Z,48.30
2019-01-25T13:29:09.100Z,52.13
2019-01-25T13:31:36.830Z,51.33
2019-01-25T13:34:04.707Z,47.47
2019-01-25T13:36:32.637Z,55.10
2019-01-25T13:39:00.742Z,50.83
2019-01-25T13:41:30.523Z,45.80
2019-01-25T13:43:58.714Z,47.83
2019-01-25T13:46:28.296Z,46.73
2019-01-25T13:48:56.286Z,47.23
2019-01-25T13:51:24.477Z,45.67
2019-01-25T13:53:52.165Z,52.93
2019-01-25T13:56:19.925Z,48.57
2019-01-25T13:58:47.649Z,45.63
2019-01-25T14:01:15.506Z,45.30
2019-01-25T14:03:43.356Z,46.30
2019-01-25T14:06:11.765Z,47.87
2019-01-25T14:08:40.776Z,49.20
2019-01-25T14:11:08.914Z,42.40
2019-01-25T14:13:36.964Z,44.13
2019-01-25T14:16:05.147Z,39.90
2019-01-25T14:18:33.086Z,40.27
2019-01-25T14:21:01.018Z,41.23
2019-01-25T14:23:29.333Z,42.30
2019-01-25T14:25:58.605Z,42.20
2019-01-25T14:28:26.684Z,29.80
2019-01-25T14:30:54.813Z,24.07
2019-01-25T14:33:22.533Z,19.13
2019-01-25T14:35:52.088Z,18.27
2019-01-25T14:38:19.789Z,18.63
2019-01-25T14:40:47.483Z,16.73
2019-01-25T14:43:15.210Z,19.73
2019-01-25T14:45:42.864Z,16.50
2019-01-25T14:48:10.646Z,16.43
2019-01-25T14:50:38.671Z,18.33
2019-01-25T14:53:07.242Z,20.03
2019-01-25T14:55:34.995Z,19.17
2019-01-25T14:58:02.675Z,18.57
2019-01-25T15:00:30.231Z,15.97
2019-01-25T15:02:57.935Z,18.57
2019-01-25T15:05:25.539Z,18.20
2019-01-25T15:07:53.230Z,18.03
2019-01-25T15:10:23.083Z,18.47
2019-01-25T15:12:52.404Z,16.67
2019-01-25T15:15:21.469Z,18.30
2019-01-25T15:17:49.630Z,16.67
2019-01-25T15:20:19.297Z,19.00
2019-01-25T15:22:47.260Z,16.80
2019-01-25T15:25:15.241Z,19.63
2019-01-25T15:27:43.351Z,17.43
2019-01-25T15:30:16.755Z,21.03
2019-01-25T15:32:44.790Z,18.60
2019-01-25T15:35:13.956Z,19.97
2019-01-25T15:37:41.756Z,19.57
2019-01-25T15:40:11.326Z,16.97
2019-01-25T15:42:39.453Z,18.63
2019-01-25T15:45:09.921Z,16.90
2019-01-25T15:47:37.755Z,17.60
2019-01-25T15:50:10.009Z,17.47
2019-01-25T15:52:37.575Z,19.20
2019-01-25T15:55:05.819Z,17.50
2019-01-25T15:57:33.490Z,20.93
2019-01-25T16:00:01.138Z,18.80
2019-01-25T16:02:28.884Z,20.67
2019-01-25T16:04:56.557Z,20.27
2019-01-25T16:07:24.156Z,16.90
2019-01-25T16:09:51.879Z,20.43
2019-01-25T16:12:19.600Z,18.77
2019-01-25T16:14:47.338Z,19.40
2019-01-25T16:17:15.592Z,16.67
2019-01-25T16:19:43.554Z,16.70
2019-01-25T16:22:11.488Z,19.13
2019-01-25T16:24:39.547Z,21.23
2019-01-25T16:27:07.142Z,19.13
2019-01-25T16:29:34.817Z,21.43
2019-01-25T16:32:02.411Z,24.93
2019-01-25T16:34:30.015Z,20.83
2019-01-25T16:36:57.705Z,21.43
2019-01-25T16:39:25.343Z,26.23
2019-01-25T16:41:52.963Z,36.23
2019-01-25T16:44:25.574Z,40.47
2019-01-25T16:46:50.171Z,27.13
2019-01-25T16:49:17.879Z,55.03
2019-01-25T16:51:45.465Z,58.40
2019-01-25T16:54:13.181Z,64.57
2019-01-25T16:56:40.983Z,64.80
2019-01-25T16:59:09.009Z,69.97
2019-01-25T17:01:36.980Z,68.20
2019-01-25T17:04:05.004Z,66.50
2019-01-25T17:06:32.959Z,64.97
2019-01-25T17:09:00.965Z,70.27
2019-01-25T17:11:29.039Z,62.27
2019-01-25T17:13:57.227Z,66.33
2019-01-25T17:16:25.320Z,64.77
2019-01-25T17:18:53.434Z,59.03
2019-01-25T17:21:21.344Z,59.70
2019-01-25T17:23:49.420Z,73.83
2019-01-25T17:26:17.803Z,65.43
2019-01-25T17:28:46.017Z,67.27
2019-01-25T17:31:13.758Z,66.10
2019-01-25T17:33:42.695Z,65.07
2019-01-25T17:36:10.431Z,65.53
2019-01-25T17:38:38.328Z,66.13
2019-01-25T17:41:06.089Z,63.83
2019-01-25T17:43:33.837Z,63.80
2019-01-25T17:46:01.395Z,68.57
2019-01-25T17:48:29.129Z,70.77
2019-01-25T17:50:56.729Z,63.20
2019-01-25T17:53:24.451Z,66.80
2019-01-25T17:55:54.610Z,62.37
2019-01-25T17:58:22.256Z,65.70
2019-01-25T18:00:54.431Z,64.97
2019-01-25T18:03:24.561Z,61.97
2019-01-25T18:05:52.167Z,61.40
2019-01-25T18:08:19.769Z,60.90
2019-01-25T18:10:48.464Z,57.40
2019-01-25T18:13:16.168Z,61.63
2019-01-25T18:15:43.832Z,56.67
2019-01-25T18:18:11.692Z,52.40
2019-01-25T18:20:39.365Z,57.43
2019-01-25T18:23:07.073Z,52.47
2019-01-25T18:25:38.423Z,50.07
2019-01-25T18:28:07.788Z,44.67
2019-01-25T18:30:42.382Z,43.43
2019-01-25T18:33:10.005Z,41.30
2019-01-25T18:35:37.602Z,40.20
2019-01-25T18:38:05.437Z,36.93
2019-01-25T18:40:36.011Z,32.73
2019-01-25T18:43:04.231Z,32.50
2019-01-25T18:45:31.910Z,31.83
2019-01-25T18:47:59.680Z,32.57
2019-01-25T18:50:27.361Z,34.27
2019-01-25T18:52:55.051Z,33.50
2019-01-25T18:55:22.652Z,31.37
2019-01-25T18:57:50.328Z,29.60
2019-01-25T19:00:18.901Z,28.80
2019-01-25T19:02:46.532Z,27.43
2019-01-25T19:05:14.736Z,26.80
2019-01-25T19:07:42.404Z,27.03
2019-01-25T19:10:13.324Z,24.73
2019-01-25T19:12:40.942Z,23.73
2019-01-25T19:15:10.590Z,20.93
2019-01-25T19:17:38.401Z,23.90
2019-01-25T19:20:08.412Z,21.33
2019-01-25T19:22:36.104Z,22.23
2019-01-25T19:25:04.624Z,20.73
2019-01-25T19:27:32.332Z,19.23
2019-01-25T19:29:59.897Z,18.77
2019-01-25T19:32:27.706Z,18.03
2019-01-25T19:34:55.326Z,19.53
2019-01-25T19:37:23.080Z,20.23
2019-01-25T19:39:50.762Z,21.03
2019-01-25T19:42:18.565Z,20.17
2019-01-25T19:44:46.295Z,17.73
2019-01-25T19:47:14.050Z,20.23
2019-01-25T19:49:41.799Z,18.83
2019-01-25T19:52:09.818Z,21.37
2019-01-25T19:54:37.625Z,19.03
2019-01-25T19:57:05.287Z,20.50
2019-01-25T19:59:33.063Z,19.23
2019-01-25T20:02:00.917Z,19.40
2019-01-25T20:04:28.765Z,21.30
2019-01-25T20:06:56.498Z,18.90
2019-01-25T20:09:24.135Z,18.13
2019-01-25T20:11:51.829Z,18.47
2019-01-25T20:14:19.522Z,18.43
2019-01-25T20:16:47.271Z,19.67
2019-01-25T20:19:15.112Z,19.37
2019-01-25T20:21:44.019Z,17.93
2019-01-25T20:24:11.830Z,20.50
2019-01-25T20:26:39.529Z,20.17
2019-01-25T20:29:10.531Z,18.17
2019-01-25T20:31:38.390Z,17.60
2019-01-25T20:34:06.069Z,22.83
2019-01-25T20:36:34.124Z,17.83
2019-01-25T20:39:03.707Z,18.13
2019-01-25T20:41:33.142Z,17.67
2019-01-25T20:44:00.906Z,18.93
2019-01-25T20:46:28.628Z,18.53
2019-01-25T20:48:56.424Z,18.43
2019-01-25T20:51:24.289Z,18.30
2019-01-25T20:53:52.105Z,15.50
2019-01-25T20:56:19.970Z,17.13
2019-01-25T20:58:47.751Z,16.00
2019-01-25T21:01:15.784Z,17.50
2019-01-25T21:03:43.482Z,17.77
2019-01-25T21:06:11.534Z,19.47
2019-01-25T21:08:39.201Z,16.90
2019-01-25T21:11:07.052Z,17.63
2019-01-25T21:13:34.871Z,16.03
2019-01-25T21:16:02.609Z,16.37
2019-01-25T21:18:30.330Z,19.80
2019-01-25T21:20:58.038Z,16.73
2019-01-25T21:23:25.640Z,17.17
2019-01-25T21:25:53.367Z,17.57
2019-01-25T21:28:20.969Z,15.23
2019-01-25T21:30:48.700Z,14.47
2019-01-25T21:33:16.281Z,15.93
2019-01-25T21:35:43.989Z,14.90
2019-01-25T21:38:11.715Z,17.53
2019-01-25T21:40:39.536Z,17.63
2019-01-25T21:43:07.169Z,15.90
2019-01-25T21:45:42.661Z,15.30
2019-01-25T21:48:11.338Z,15.00
2019-01-25T21:50:40.402Z,14.00
2019-01-25T21:53:08.140Z,16.93
2019-01-25T21:55:35.892Z,15.30
2019-01-25T21:58:05.637Z,16.30
2019-01-25T22:00:33.957Z,14.60
2019-01-25T22:03:01.786Z,14.97
2019-01-25T22:05:29.660Z,17.67
2019-01-25T22:07:58.548Z,15.50
2019-01-25T22:10:38.191Z,16.77
2019-01-25T22:13:05.908Z,14.57
2019-01-25T22:15:34.752Z,13.77
2019-01-25T22:18:02.743Z,15.03
2019-01-25T22:20:30.534Z,17.63
2019-01-25T22:22:58.315Z,26.27
2019-01-25T22:25:26.017Z,24.40
2019-01-25T22:27:55.148Z,15.47
2019-01-25T22:30:23.607Z,13.90
2019-01-25T22:32:51.313Z,15.00
2019-01-25T22:35:19.220Z,15.23
2019-01-25T22:37:47.179Z,16.20
2019-01-25T22:40:17.172Z,13.93
2019-01-25T22:42:44.757Z,14.13
2019-01-25T22:45:14.433Z,14.80
2019-01-25T22:47:42.070Z,15.30
2019-01-25T22:50:13.176Z,15.73
2019-01-25T22:52:40.789Z,15.80
2019-01-25T22:55:10.446Z,15.60
2019-01-25T22:57:38.166Z,14.47
2019-01-25T23:00:51.504Z,14.13
2019-01-25T23:03:22.664Z,15.00
2019-01-25T23:06:44.109Z,13.13
2019-01-25T23:09:15.194Z,15.70
2019-01-25T23:11:42.914Z,15.83
2019-01-25T23:14:10.542Z,15.40
2019-01-25T23:16:40.035Z,14.10
2019-01-25T23:19:07.783Z,13.83
2019-01-25T23:21:35.505Z,16.03
2019-01-25T23:24:03.349Z,14.00
2019-01-25T23:26:31.017Z,16.97
2019-01-25T23:28:58.567Z,14.13
2019-01-25T23:31:27.219Z,16.97
2019-01-25T23:33:54.821Z,14.83
2019-01-25T23:36:22.562Z,14.13
2019-01-25T23:38:50.230Z,13.17
2019-01-25T23:41:17.930Z,13.90
2019-01-25T23:43:45.628Z,13.00
2019-01-25T23:46:13.970Z,12.03
2019-01-25T23:48:41.968Z,14.30
2019-01-25T23:51:09.649Z,16.43
2019-01-25T23:53:38.196Z,16.17
2019-01-25T23:56:05.864Z,12.97
2019-01-25T23:58:33.439Z,14.07
